TimeCDT,TemperatureF,Dew PointF,Humidity,Sea Level PressureIn,VisibilityMPH,Wind Direction,Wind SpeedMPH,Gust SpeedMPH,PrecipitationIn,Events,Conditions,WindDirDegrees,DateUTC
12:53 AM,81.0,45.0,28,29.77,10.0,SSW,17.3,-,N/A,,Clear,200,2013-06-12 05:53:00
1:53 AM,79.0,46.0,31,29.77,10.0,SSW,18.4,-,N/A,,Clear,210,2013-06-12 06:53:00
2:53 AM,77.0,46.0,33,29.78,10.0,SSW,16.1,-,N/A,,Clear,210,2013-06-12 07:53:00
3:53 AM,73.9,46.0,37,29.79,10.0,SSW,11.5,-,N/A,,Clear,210,2013-06-12 08:53:00
4:53 AM,69.1,46.0,44,29.81,10.0,SSW,9.2,-,N/A,,Clear,210,2013-06-12 09:53:00
5:53 AM,66.9,46.9,49,29.83,10.0,SW,5.8,-,N/A,,Clear,230,2013-06-12 10:53:00
6:53 AM,66.0,46.9,50,29.85,8.0,West,6.9,-,N/A,,Clear,270,2013-06-12 11:53:00
7:44 AM,68.0,48.2,49,30.06,1.8,West,8.1,-,N/A,,Haze,270,2013-06-12 12:44:00
7:53 AM,68.0,46.9,47,29.86,2.5,West,6.9,-,N/A,,Haze,280,2013-06-12 12:53:00
8:00 AM,68.0,46.4,46,30.06,9.0,West,8.1,-,N/A,,Clear,270,2013-06-12 13:00:00
8:53 AM,77.0,46.0,33,29.86,10.0,West,4.6,-,N/A,,Clear,270,2013-06-12 13:53:00
9:53 AM,82.0,43.0,25,29.88,10.0,ENE,5.8,-,N/A,,Clear,60,2013-06-12 14:53:00
10:53 AM,88.0,48.9,26,29.87,10.0,NE,11.5,-,N/A,,Clear,50,2013-06-12 15:53:00
11:53 AM,91.0,50.0,24,29.88,10.0,ENE,16.1,-,N/A,,Clear,70,2013-06-12 16:53:00
12:53 PM,93.9,43.0,17,29.87,10.0,East,21.9,-,N/A,,Clear,90,2013-06-12 17:53:00
1:53 PM,96.1,39.0,14,29.87,10.0,ENE,19.6,26.5,N/A,,Clear,70,2013-06-12 18:53:00
2:53 PM,97.0,39.9,14,29.86,10.0,East,13.8,24.2,N/A,,Clear,90,2013-06-12 19:53:00
3:53 PM,97.0,42.1,15,29.85,10.0,East,12.7,23.0,N/A,,Clear,100,2013-06-12 20:53:00
4:53 PM,97.0,44.1,16,29.85,10.0,East,16.1,26.5,N/A,,Clear,90,2013-06-12 21:53:00
5:53 PM,96.1,48.0,19,29.84,10.0,ESE,13.8,-,N/A,,Clear,110,2013-06-12 22:53:00
6:53 PM,96.1,46.9,19,29.83,10.0,East,10.4,-,N/A,,Clear,90,2013-06-12 23:53:00
7:53 PM,93.9,48.0,21,29.83,10.0,ESE,11.5,-,N/A,,Clear,110,2013-06-13 00:53:00
8:53 PM,90.0,48.0,24,29.83,10.0,SE,13.8,-,N/A,,Clear,130,2013-06-13 01:53:00
9:53 PM,84.9,48.0,28,29.84,10.0,SSE,10.4,-,N/A,,Clear,150,2013-06-13 02:53:00
10:53 PM,79.0,46.9,32,29.87,10.0,SSE,6.9,-,N/A,,Clear,160,2013-06-13 03:53:00
11:53 PM,77.0,45.0,32,29.88,10.0,South,10.4,-,N/A,,Clear,170,2013-06-13 04:53:00